Time;durP1;ratioP1;P1;durP2;ratioP2;P2;SDS_P1;SDS_P2;PMS_P1;PMS_P2;Temp;Humidity;BMP_temperature;BMP_pressure;BME280_temperature;BME280_humidity;BME280_pressure;Samples;Min_cycle;Max_cycle;Signal;HPM_P1;HPM_P2
2024/01/18 00:00:44;;;;;;;17.90;17.00;;;;;;;-141.02;100.00;38595.97;5113931;28;20280;-70
2024/01/18 00:03:11;;;;;;;17.63;16.77;;;;;;;-141.02;100.00;38553.78;5114054;28;20189;-71
2024/01/18 00:05:39;;;;;;;18.63;17.73;;;;;;;-141.02;100.00;38507.78;5113695;28;20618;-73
2024/01/18 00:08:06;;;;;;;19.03;18.23;;;;;;;-141.02;100.00;38457.91;5114087;28;20209;-72
2024/01/18 00:10:33;;;;;;;18.93;18.13;;;;;;;-141.02;100.00;38323.72;5113904;28;20284;-74
2024/01/18 00:13:00;;;;;;;18.57;17.87;;;;;;;-141.02;100.00;38354.41;5113634;28;20706;-72
2024/01/18 00:15:27;;;;;;;20.53;19.73;;;;;;;-141.02;100.00;38312.22;5113909;28;20197;-71
2024/01/18 00:17:54;;;;;;;20.20;19.40;;;;;;;-141.02;100.00;38270.03;5113389;28;20267;-72
2024/01/18 00:20:23;;;;;;;20.33;19.53;;;;;;;-141.02;100.00;38289.22;5113860;28;20224;-71
2024/01/18 00:22:52;;;;;;;21.57;20.67;;;;;;;-141.02;100.00;38342.88;5103165;28;20197;-71
2024/01/18 00:25:19;;;;;;;20.40;19.60;;;;;;;-141.02;100.00;38371.66;5093067;28;20632;-72
2024/01/18 00:27:46;;;;;;;21.63;20.73;;;;;;;-141.02;100.00;38406.16;5093175;28;20232;-72
2024/01/18 00:30:14;;;;;;;20.97;20.07;;;;;;;-141.02;100.00;38434.91;5092944;28;20569;-71
2024/01/18 00:32:41;;;;;;;20.60;19.70;;;;;;;-141.02;100.00;38456.00;5093213;28;20194;-72
2024/01/18 00:35:09;;;;;;;27.20;26.00;;;;;;;-141.02;100.00;38452.16;5093121;28;20225;-73
2024/01/18 00:37:36;;;;;;;26.17;25.07;;;;;;;-141.02;100.00;38461.75;5092808;28;20289;-73
2024/01/18 00:40:06;;;;;;;25.90;24.70;;;;;;;-141.02;100.00;38599.81;5092713;28;20727;-73
2024/01/18 00:42:33;;;;;;;26.93;25.73;;;;;;;-141.02;100.00;38599.81;5092778;28;20273;-72
2024/01/18 00:45:00;;;;;;;29.43;28.03;;;;;;;-141.02;100.00;38611.31;5092691;28;20198;-73
2024/01/18 00:47:27;;;;;;;27.27;25.97;;;;;;;-141.02;100.00;38699.50;5092654;28;20729;-73
2024/01/18 00:49:54;;;;;;;31.00;29.50;;;;;;;-141.02;100.00;38726.34;5092910;28;20280;-75
2024/01/18 00:52:21;;;;;;;33.80;32.07;;;;;;;-141.02;100.00;38822.22;5092868;28;20281;-73
2024/01/18 00:54:48;;;;;;;33.10;31.40;;;;;;;-141.02;100.00;38799.22;5092473;28;20610;-74
2024/01/18 00:57:16;;;;;;;26.50;25.20;;;;;;;-141.02;100.00;38822.22;5092497;28;20201;-74
2024/01/18 00:59:43;;;;;;;26.13;24.83;;;;;;;-141.02;100.00;38845.22;5092541;28;20285;-75
2024/01/18 01:02:10;;;;;;;26.97;25.67;;;;;;;-141.02;100.00;38889.34;5092707;28;20189;-77
2024/01/18 01:04:37;;;;;;;26.00;24.70;;;;;;;-141.02;100.00;38948.78;5092664;28;20197;-74
2024/01/18 01:07:04;;;;;;;26.73;25.37;;;;;;;-141.02;100.00;38833.72;5092626;28;20312;-74
2024/01/18 01:09:31;;;;;;;27.50;26.20;;;;;;;-141.02;100.00;38889.34;5092630;28;20198;-76
2024/01/18 01:11:58;;;;;;;23.73;22.63;;;;;;;-141.02;100.00;39339.97;5092043;28;20278;-75
2024/01/18 01:14:26;;;;;;;21.63;20.63;;;;;;;-141.02;100.00;40300.91;5092255;28;20232;-76
2024/01/18 01:16:53;;;;;;;24.53;23.40;;;;;;;-141.02;100.00;41500.06;5092172;28;20233;-75
2024/01/18 01:19:20;;;;;;;23.90;22.80;;;;;;;-141.02;100.00;42594.06;5092532;28;20221;-76
2024/01/18 01:21:47;;;;;;;19.60;18.73;;;;;;;-141.02;100.00;43592.41;5092417;28;20277;-76
2024/01/18 01:24:14;;;;;;;18.30;17.50;;;;;;;-141.02;100.00;43352.38;5092129;28;20233;-75
2024/01/18 01:26:41;;;;;;;25.47;24.27;;;;;;;-141.02;100.00;43189.19;5092328;28;20312;-76
2024/01/18 01:29:10;;;;;;;23.33;22.33;;;;;;;-141.02;100.00;43888.13;5092447;28;20634;-75
2024/01/18 01:31:38;;;;;;;21.47;20.57;;;;;;;-141.02;100.00;45213.44;5092034;28;20228;-78
2024/01/18 01:34:08;;;;;;;25.53;24.33;;;;;;;-141.02;100.00;46587.28;5092349;28;20204;-78
2024/01/18 01:36:35;;;;;;;26.03;24.83;;;;;;;-141.02;100.00;47942.50;5092367;28;20204;-77
2024/01/18 01:39:03;;;;;;;21.20;20.30;;;;;;;-141.02;100.00;49053.97;5092334;28;20204;-76
2024/01/18 01:41:31;;;;;;;23.80;22.70;;;;;;;-141.02;100.00;50013.84;5092677;28;20190;-76
2024/01/18 01:43:58;;;;;;;28.77;27.37;;;;;;;-141.02;100.00;52656.31;5091941;28;20656;-76
2024/01/18 01:46:25;;;;;;;24.53;23.33;;;;;;;-141.02;100.00;52569.66;5091911;28;20228;-76
2024/01/18 01:48:56;;;;;;;22.97;21.93;;;;;;;-141.02;100.00;50931.63;5092286;28;20216;-76
2024/01/18 01:51:24;;;;;;;26.40;25.10;;;;;;;-141.02;100.00;45810.94;5092216;28;20196;-76
2024/01/18 01:53:51;;;;;;;27.00;25.60;;;;;;;-141.02;100.00;44443.16;5091913;28;20289;-75
2024/01/18 01:56:18;;;;;;;27.83;26.43;;;;;;;-141.02;100.00;43867.00;5091870;28;20297;-76
2024/01/18 01:58:46;;;;;;;24.47;23.27;;;;;;;-141.02;100.00;43511.75;5091801;28;20652;-74
2024/01/18 02:01:13;;;;;;;28.50;27.10;;;;;;;-141.02;100.00;43811.31;5091752;28;20571;-74
2024/01/18 02:03:40;;;;;;;28.37;26.97;;;;;;;-141.02;100.00;43277.50;5091782;28;20200;-73
2024/01/18 02:06:09;;;;;;;28.63;27.13;;;;;;;-141.02;100.00;43269.81;5091705;28;20198;-74
2024/01/18 02:08:37;;;;;;;26.77;25.47;;;;;;;-141.02;100.00;43421.50;5091972;28;20201;-73
2024/01/18 02:11:05;;;;;;;30.90;29.30;;;;;;;-141.02;100.00;43674.97;5091699;28;20691;-73
2024/01/18 02:13:33;;;;;;;28.20;26.80;;;;;;;-141.02;100.00;44187.72;5091612;28;20189;-73
2024/01/18 02:16:02;;;;;;;26.70;25.40;;;;;;;-141.02;100.00;45470.88;5091463;28;20229;-73
2024/01/18 02:18:29;;;;;;;24.93;23.83;;;;;;;-141.02;100.00;45566.94;5091679;28;20236;-72
2024/01/18 02:20:56;;;;;;;27.90;26.60;;;;;;;-141.02;100.00;45345.97;5091643;28;20759;-72
2024/01/18 02:23:28;;;;;;;28.93;27.53;;;;;;;-141.02;100.00;45597.66;5093296;28;20228;-72
2024/01/18 02:25:56;;;;;;;26.70;25.50;;;;;;;-141.02;100.00;45918.53;5102074;28;20228;-72
2024/01/18 02:28:23;;;;;;;24.77;23.67;;;;;;;-141.02;100.00;46425.88;5116023;28;20221;-72
2024/01/18 02:30:50;;;;;;;25.50;24.30;;;;;;;-141.02;100.00;46300.94;5115957;28;20229;-72
2024/01/18 02:33:17;;;;;;;24.73;23.53;;;;;;;-141.02;100.00;43832.44;5115970;28;20225;-71
2024/01/18 02:35:44;;;;;;;27.40;26.13;;;;;;;-141.02;100.00;44206.91;5115840;28;20219;-73
2024/01/18 02:38:11;;;;;;;25.80;24.70;;;;;;;-141.02;100.00;43997.59;5115465;28;20728;-72
2024/01/18 02:40:39;;;;;;;25.00;23.90;;;;;;;-141.02;100.00;43427.28;5115541;28;20283;-73
2024/01/18 02:43:08;;;;;;;25.80;24.60;;;;;;;-141.02;100.00;42225.50;5115686;28;20201;-73
2024/01/18 02:45:37;;;;;;;27.30;26.00;;;;;;;-141.02;100.00;41519.25;5115390;28;20197;-73
2024/01/18 02:48:05;;;;;;;26.87;25.67;;;;;;;-141.02;100.00;41365.72;5115197;28;20320;-72
2024/01/18 02:50:32;;;;;;;24.53;23.43;;;;;;;-141.02;100.00;41565.31;5115339;28;20225;-73
2024/01/18 02:52:59;;;;;;;22.13;21.13;;;;;;;-141.02;100.00;41753.38;5099793;28;20265;-72
2024/01/18 02:55:26;;;;;;;24.90;23.70;;;;;;;-141.02;100.00;41193.03;5094776;28;20196;-73
2024/01/18 02:57:55;;;;;;;26.07;24.77;;;;;;;-141.02;100.00;40916.75;5094728;28;20281;-73
2024/01/18 03:00:23;;;;;;;25.27;24.07;;;;;;;-141.02;100.00;40793.94;5094987;28;20198;-74
2024/01/18 03:02:50;;;;;;;24.70;23.50;;;;;;;-141.02;100.00;40713.38;5094655;28;20650;-74
2024/01/18 03:05:17;;;;;;;23.70;22.50;;;;;;;-141.02;100.00;40644.28;5094613;28;20660;-75
2024/01/18 03:07:44;;;;;;;23.20;22.10;;;;;;;-141.02;100.00;40682.66;5094429;28;20230;-75
2024/01/18 03:10:11;;;;;;;22.20;21.20;;;;;;;-141.02;100.00;40878.38;5094821;28;20639;-75
2024/01/18 03:12:39;;;;;;;21.07;20.17;;;;;;;-141.02;100.00;41162.34;5094750;28;20198;-75
2024/01/18 03:15:09;;;;;;;20.10;19.30;;;;;;;-141.02;100.00;41492.38;5094870;28;20194;-74
2024/01/18 03:17:37;;;;;;;20.47;19.57;;;;;;;-141.02;100.00;41538.44;5094332;28;20317;-74
2024/01/18 03:20:07;;;;;;;20.00;19.10;;;;;;;-141.02;100.00;41269.78;5094402;28;20729;-74
2024/01/18 03:22:34;;;;;;;21.77;20.77;;;;;;;-141.02;100.00;41064.47;5094618;28;20202;-72
2024/01/18 03:25:01;;;;;;;21.83;20.83;;;;;;;-141.02;100.00;40920.56;5114413;28;20726;-72
2024/01/18 03:27:28;;;;;;;19.87;18.97;;;;;;;-141.02;100.00;40790.09;5114871;28;20270;-72
2024/01/18 03:29:55;;;;;;;21.70;20.70;;;;;;;-141.02;100.00;40778.59;5114514;28;20236;-73
2024/01/18 03:32:22;;;;;;;20.07;19.17;;;;;;;-141.02;100.00;40830.41;5114808;28;20670;-71
2024/01/18 03:34:50;;;;;;;18.23;17.43;;;;;;;-141.02;100.00;40801.63;5114148;28;20265;-73
2024/01/18 03:37:17;;;;;;;19.07;18.27;;;;;;;-141.02;100.00;40826.56;5114704;28;20224;-73
2024/01/18 03:39:44;;;;;;;18.77;17.97;;;;;;;-141.02;100.00;40901.38;5114621;28;20224;-71
2024/01/18 03:42:11;;;;;;;16.97;16.27;;;;;;;-141.02;100.00;40930.16;5114601;28;20271;-71
2024/01/18 03:44:38;;;;;;;16.73;16.03;;;;;;;-141.02;100.00;40889.88;5114549;28;20193;-73
2024/01/18 03:47:05;;;;;;;17.20;16.50;;;;;;;-141.02;100.00;41005.00;5114306;28;20312;-71
2024/01/18 03:49:32;;;;;;;16.90;16.20;;;;;;;-141.02;100.00;41047.22;5114409;28;20275;-70
2024/01/18 03:52:01;;;;;;;15.30;14.70;;;;;;;-141.02;100.00;41077.91;5114037;28;20288;-70
2024/01/18 03:54:28;;;;;;;16.70;16.00;;;;;;;-141.02;100.00;41179.59;5114329;28;20228;-71
2024/01/18 03:56:55;;;;;;;16.43;15.83;;;;;;;-141.02;100.00;41242.91;5114270;28;20193;-71
2024/01/18 03:59:23;;;;;;;14.40;13.90;;;;;;;-141.02;100.00;41285.13;5114124;28;20195;-70
2024/01/18 04:01:50;;;;;;;14.50;14.00;;;;;;;-141.02;100.00;41373.41;5114060;28;20281;-71
2024/01/18 04:04:17;;;;;;;15.60;15.00;;;;;;;-141.02;100.00;41415.63;5113792;28;20293;-70
2024/01/18 04:06:44;;;;;;;14.70;14.20;;;;;;;-141.02;100.00;41300.50;5113717;28;20681;-70
2024/01/18 04:09:13;;;;;;;13.57;13.07;;;;;;;-141.02;100.00;41454.00;5114417;28;20189;-70
2024/01/18 04:11:40;;;;;;;13.73;13.23;;;;;;;-141.02;100.00;41638.22;5113652;28;20280;-71
2024/01/18 04:14:07;;;;;;;14.50;14.00;;;;;;;-141.02;100.00;41569.13;5113628;28;20762;-70
2024/01/18 04:16:34;;;;;;;14.73;14.23;;;;;;;-141.02;100.00;41392.59;5113565;28;20311;-70
2024/01/18 04:19:01;;;;;;;15.40;14.80;;;;;;;-141.02;100.00;41377.25;5113835;28;20201;-70
2024/01/18 04:21:28;;;;;;;14.97;14.47;;;;;;;-141.02;100.00;41630.56;5113813;28;20221;-69
2024/01/18 04:23:56;;;;;;;14.20;13.70;;;;;;;-141.02;100.00;41617.13;5113740;28;20196;-69
2024/01/18 04:26:25;;;;;;;12.03;11.63;;;;;;;-141.02;100.00;41553.78;5113475;28;20223;-70
2024/01/18 04:28:52;;;;;;;11.00;10.70;;;;;;;-141.02;100.00;42620.94;5113279;28;20231;-72
2024/01/18 04:31:19;;;;;;;12.23;11.83;;;;;;;-141.02;100.00;43300.56;5113604;28;20197;-70
2024/01/18 04:33:47;;;;;;;12.87;12.47;;;;;;;-141.02;100.00;42924.25;5113272;28;20746;-71
2024/01/18 04:36:14;;;;;;;11.20;10.90;;;;;;;-141.02;100.00;43454.16;5113501;28;20281;-71
2024/01/18 04:38:41;;;;;;;10.90;10.60;;;;;;;-141.02;100.00;44114.72;5113134;28;20640;-70
2024/01/18 04:41:08;;;;;;;11.50;11.10;;;;;;;-141.02;100.00;44521.91;5113017;28;20567;-70
2024/01/18 04:43:36;;;;;;;11.30;11.00;;;;;;;-141.02;100.00;44644.81;5113350;28;20272;-72
2024/01/18 04:46:04;;;;;;;10.80;10.50;;;;;;;-141.02;100.00;44783.13;5112866;28;20232;-72
2024/01/18 04:48:31;;;;;;;11.10;10.80;;;;;;;-141.02;100.00;44948.31;5112521;28;20601;-72
2024/01/18 04:50:58;;;;;;;12.10;11.70;;;;;;;-141.02;100.00;44763.91;5113293;28;20280;-70
2024/01/18 04:53:25;;;;;;;12.90;12.50;;;;;;;-141.02;100.00;45242.25;5113272;28;20193;-72
2024/01/18 04:55:53;;;;;;;10.90;10.60;;;;;;;-141.02;100.00;44794.66;5113190;28;20196;-70
2024/01/18 04:58:21;;;;;;;11.90;11.50;;;;;;;-141.02;100.00;44053.28;5113149;28;20189;-69
2024/01/18 05:00:49;;;;;;;13.10;12.70;;;;;;;-141.02;100.00;44326.00;5113124;28;20193;-71
2024/01/18 05:03:16;;;;;;;13.67;13.23;;;;;;;-141.02;100.00;44602.56;5112730;28;20613;-73
2024/01/18 05:05:44;;;;;;;13.23;12.73;;;;;;;-141.02;100.00;44967.53;5112664;28;20284;-70
2024/01/18 05:08:11;;;;;;;14.10;13.60;;;;;;;-141.02;100.00;42981.84;5112675;28;20312;-69
2024/01/18 05:10:37;;;;;;;16.07;15.47;;;;;;;-141.02;100.00;42357.94;5112961;28;20254;-69
2024/01/18 05:13:04;;;;;;;16.40;15.80;;;;;;;-141.02;100.00;42110.34;5112649;28;20197;-70
2024/01/18 05:15:31;;;;;;;14.10;13.60;;;;;;;-141.02;100.00;42690.03;5112796;28;20192;-71
2024/01/18 05:18:00;;;;;;;13.30;12.80;;;;;;;-141.02;100.00;42920.41;5112858;28;20231;-69
2024/01/18 05:20:27;;;;;;;13.60;13.20;;;;;;;-141.02;100.00;42866.66;5112549;28;20239;-69
2024/01/18 05:22:54;;;;;;;13.90;13.40;;;;;;;-141.02;100.00;42916.56;5112492;28;20679;-70
2024/01/18 05:25:21;;;;;;;12.80;12.40;;;;;;;-141.02;100.00;43016.41;5112521;28;20284;-70
2024/01/18 05:27:49;;;;;;;12.37;11.97;;;;;;;-141.02;100.00;43277.50;5112660;28;20228;-68
2024/01/18 05:30:16;;;;;;;13.70;13.20;;;;;;;-141.02;100.00;43494.47;5112507;28;20228;-69
2024/01/18 05:32:43;;;;;;;15.10;14.50;;;;;;;-141.02;100.00;43175.75;5112431;28;20201;-70
2024/01/18 05:35:11;;;;;;;13.83;13.33;;;;;;;-141.02;100.00;42882.00;5112700;28;20193;-69
2024/01/18 05:37:38;;;;;;;14.43;13.93;;;;;;;-141.02;100.00;42536.47;5112688;28;20225;-69
2024/01/18 05:40:08;;;;;;;14.83;14.33;;;;;;;-141.02;100.00;42647.81;5112701;28;20276;-70
2024/01/18 05:42:35;;;;;;;14.70;14.20;;;;;;;-141.02;100.00;42643.97;5112659;28;20197;-70
2024/01/18 05:45:02;;;;;;;14.07;13.57;;;;;;;-141.02;100.00;42906.97;5112273;28;20189;-69
2024/01/18 05:47:29;;;;;;;13.80;13.30;;;;;;;-141.02;100.00;42753.38;5112227;28;20201;-70
2024/01/18 05:49:56;;;;;;;15.90;15.30;;;;;;;-141.02;100.00;42812.91;5112556;28;20276;-70
2024/01/18 05:52:24;;;;;;;16.50;15.87;;;;;;;-141.02;100.00;41830.13;5112193;28;20196;-70
2024/01/18 05:54:52;;;;;;;13.20;12.70;;;;;;;-141.02;100.00;42390.59;5112231;28;20280;-70
2024/01/18 05:57:19;;;;;;;14.70;14.20;;;;;;;-141.02;100.00;42365.63;5112110;28;20640;-70
2024/01/18 05:59:46;;;;;;;14.10;13.60;;;;;;;-141.02;100.00;43031.75;5116103;28;20193;-70
2024/01/18 06:02:13;;;;;;;15.30;14.70;;;;;;;-141.02;100.00;42928.09;5116517;28;20247;-70
2024/01/18 06:04:40;;;;;;;14.60;14.00;;;;;;;-141.02;100.00;43427.28;5116450;28;20193;-69
2024/01/18 06:07:07;;;;;;;16.37;15.67;;;;;;;-141.02;100.00;43027.91;5116164;28;20195;-70
2024/01/18 06:09:36;;;;;;;16.23;15.53;;;;;;;-141.02;100.00;43146.94;5116229;28;20251;-70
2024/01/18 06:12:04;;;;;;;15.40;14.80;;;;;;;-141.02;100.00;43473.34;5116001;28;20567;-70
2024/01/18 06:14:31;;;;;;;14.90;14.30;;;;;;;-141.02;100.00;43761.38;5116211;28;20193;-69
2024/01/18 06:16:58;;;;;;;16.40;15.70;;;;;;;-141.02;100.00;43765.22;5115761;28;20225;-70
2024/01/18 06:19:24;;;;;;;15.50;14.90;;;;;;;-141.02;100.00;43458.00;5115898;28;20232;-70
2024/01/18 06:21:51;;;;;;;15.63;15.00;;;;;;;-141.02;100.00;43461.84;5115824;28;20192;-70
2024/01/18 06:24:18;;;;;;;15.30;14.70;;;;;;;-141.02;100.00;44479.66;5116133;28;20229;-70
2024/01/18 06:26:47;;;;;;;16.40;15.60;;;;;;;-141.02;100.00;44495.00;5112679;28;20286;-70
2024/01/18 06:29:16;;;;;;;16.40;15.60;;;;;;;-141.02;100.00;44007.19;5095257;28;20603;-70
2024/01/18 06:31:43;;;;;;;16.70;15.90;;;;;;;-141.02;100.00;44068.63;5095223;28;20682;-71
2024/01/18 06:34:10;;;;;;;16.57;15.77;;;;;;;-141.02;100.00;43976.47;5095231;28;20284;-71
2024/01/18 06:36:38;;;;;;;16.65;15.85;;;;;;;-141.02;100.00;43953.41;5095582;28;20194;-70
2024/01/18 06:39:05;;;;;;;16.85;15.95;;;;;;;-141.02;100.00;43964.94;5095116;28;20197;-71
2024/01/18 06:41:32;;;;;;;17.30;16.40;;;;;;;-141.02;100.00;43623.13;5095111;28;20289;-70
2024/01/18 06:44:00;;;;;;;17.60;16.70;;;;;;;-141.02;100.00;43692.25;5095254;28;20200;-70
2024/01/18 06:46:29;;;;;;;17.45;16.58;;;;;;;-141.02;100.00;43592.41;5095050;28;20198;-70
2024/01/18 06:48:57;;;;;;;16.30;15.60;;;;;;;-141.02;100.00;43511.75;5095198;28;20613;-70
2024/01/18 06:51:24;;;;;;;16.85;16.15;;;;;;;-141.02;100.00;43676.91;5095204;28;20190;-70
2024/01/18 06:53:51;;;;;;;18.60;17.80;;;;;;;-141.02;100.00;43765.22;5094739;28;20190;-70
2024/01/18 06:56:18;;;;;;;17.48;16.67;;;;;;;-141.02;100.00;43663.44;5100218;28;20225;-71
2024/01/18 06:58:45;;;;;;;18.08;17.17;;;;;;;-141.02;100.00;43696.09;5115094;28;20285;-72
2024/01/18 07:01:13;;;;;;;19.35;18.35;;;;;;;-141.02;100.00;43803.63;5115338;28;20279;-72
2024/01/18 07:03:41;;;;;;;20.70;19.60;;;;;;;-141.02;100.00;44014.88;5115291;28;20277;-72
2024/01/18 07:06:09;;;;;;;18.60;17.60;;;;;;;-141.02;100.00;44180.03;5114970;28;20670;-72
2024/01/18 07:08:37;;;;;;;20.50;19.40;;;;;;;-141.02;100.00;44448.91;5115173;28;20672;-72
2024/01/18 07:11:04;;;;;;;21.10;20.00;;;;;;;-141.02;100.00;44479.66;5114236;28;20226;-72
2024/01/18 07:13:31;;;;;;;18.95;17.95;;;;;;;-141.02;100.00;44959.84;5114888;28;20662;-72
2024/01/18 07:15:58;;;;;;;19.08;18.08;;;;;;;-141.02;100.00;45442.03;5114622;28;20264;-72
2024/01/18 07:18:27;;;;;;;20.13;19.13;;;;;;;-141.02;100.00;45755.22;5114812;28;20196;-72
2024/01/18 07:20:53;;;;;;;21.77;20.48;;;;;;;-141.02;100.00;45586.13;5114733;28;20197;-73
2024/01/18 07:23:22;;;;;;;20.10;18.90;;;;;;;-141.02;100.00;45532.34;5109119;28;20288;-72
2024/01/18 07:25:49;;;;;;;22.42;21.13;;;;;;;-141.02;100.00;45686.06;5094221;28;20741;-72
2024/01/18 07:28:16;;;;;;;22.73;21.33;;;;;;;-141.02;100.00;45457.41;5094486;28;20225;-72
2024/01/18 07:30:43;;;;;;;20.73;19.52;;;;;;;-141.02;100.00;45997.31;5094153;28;20293;-72
2024/01/18 07:33:10;;;;;;;20.73;19.52;;;;;;;-141.02;100.00;45941.59;5094130;28;20233;-72
2024/01/18 07:35:38;;;;;;;21.70;20.60;;;;;;;-141.02;100.00;46393.19;5094076;28;20223;-72
2024/01/18 07:38:05;;;;;;;21.02;19.92;;;;;;;-141.02;100.00;46272.13;5094025;28;20220;-72
2024/01/18 07:40:33;;;;;;;20.02;18.92;;;;;;;-141.02;100.00;46541.16;5094027;28;20694;-71
2024/01/18 07:42:59;;;;;;;20.25;18.95;;;;;;;-141.02;100.00;46047.28;5094191;28;20194;-71
2024/01/18 07:45:26;;;;;;;20.70;19.50;;;;;;;-141.02;100.00;46631.50;5114198;28;20232;-72
2024/01/18 07:47:54;;;;;;;20.85;19.65;;;;;;;-141.02;100.00;46646.88;5114065;28;20636;-71
2024/01/18 07:50:21;;;;;;;18.33;17.33;;;;;;;-141.02;100.00;47004.38;5114112;28;20659;-71
2024/01/18 07:52:49;;;;;;;18.55;17.45;;;;;;;-141.02;100.00;46377.81;5114122;28;20284;-71
2024/01/18 07:55:16;;;;;;;21.05;19.85;;;;;;;-141.02;100.00;46268.28;5114346;28;20217;-71
2024/01/18 07:57:43;;;;;;;21.65;20.25;;;;;;;-141.02;100.00;46373.97;5113974;28;20200;-71
2024/01/18 08:00:12;;;;;;;20.05;18.75;;;;;;;-141.02;100.00;46362.44;5113862;28;20203;-71
2024/01/18 08:02:39;;;;;;;21.63;20.23;;;;;;;-141.02;100.00;46896.72;5113912;28;20254;-71
2024/01/18 08:05:06;;;;;;;21.20;20.00;;;;;;;-141.02;100.00;47846.38;5113833;28;20663;-71
2024/01/18 08:07:33;;;;;;;18.50;17.40;;;;;;;-141.02;100.00;47010.13;5113795;28;20285;-71
2024/01/18 08:10:02;;;;;;;18.75;17.55;;;;;;;-141.02;100.00;46185.66;5113970;28;20260;-71
2024/01/18 08:12:29;;;;;;;20.83;19.52;;;;;;;-141.02;100.00;45632.25;5113963;27;20699;-70
2024/01/18 08:14:56;;;;;;;18.60;17.50;;;;;;;-141.02;100.00;45342.13;5094440;28;20281;-70
2024/01/18 08:17:24;;;;;;;15.27;14.48;;;;;;;-141.02;100.00;46103.00;5093092;28;20272;-70
2024/01/18 08:19:51;;;;;;;15.85;14.95;;;;;;;-141.02;100.00;45712.94;5093215;28;20244;-70
2024/01/18 08:22:18;;;;;;;19.48;18.38;;;;;;;-141.02;100.00;45743.69;5093030;28;20194;-70
2024/01/18 08:24:45;;;;;;;18.63;17.52;;;;;;;-141.02;100.00;45071.25;5093130;28;20236;-70
2024/01/18 08:27:12;;;;;;;18.73;17.63;;;;;;;-141.02;100.00;44084.00;5113375;28;20285;-70
2024/01/18 08:29:39;;;;;;;21.23;20.02;;;;;;;-141.02;100.00;43461.84;5113552;28;20225;-70
2024/01/18 08:32:08;;;;;;;18.20;17.20;;;;;;;-141.02;100.00;43511.75;5113631;28;20224;-70
2024/01/18 08:34:35;;;;;;;15.23;14.53;;;;;;;-141.02;100.00;43849.72;5113264;28;20197;-70
2024/01/18 08:37:04;;;;;;;14.90;14.20;;;;;;;-141.02;100.00;44191.56;5113202;28;20663;-70
2024/01/18 08:39:31;;;;;;;14.70;14.00;;;;;;;-141.02;100.00;44600.66;5113462;28;20193;-71
2024/01/18 08:41:59;;;;;;;15.00;14.30;;;;;;;-141.02;100.00;44644.81;5093736;28;20569;-70
2024/01/18 08:44:28;;;;;;;15.60;14.80;;;;;;;-141.02;100.00;44971.38;5092764;28;20255;-70
2024/01/18 08:46:55;;;;;;;15.00;14.30;;;;;;;-141.02;100.00;45367.13;5095106;28;20225;-70
2024/01/18 08:49:24;;;;;;;14.33;13.63;;;;;;;-141.02;100.00;45818.63;5112975;28;20267;-70
2024/01/18 08:51:53;;;;;;;14.73;14.02;;;;;;;-141.02;100.00;45628.41;5113246;28;20276;-70
2024/01/18 08:54:21;;;;;;;16.02;15.13;;;;;;;-141.02;100.00;45128.91;5112956;28;20698;-70
2024/01/18 08:56:48;;;;;;;16.05;15.18;;;;;;;-141.02;100.00;45566.94;5112950;28;20250;-70
2024/01/18 08:59:15;;;;;;;16.42;15.52;;;;;;;-141.02;100.00;45476.63;5112810;28;20288;-69
2024/01/18 09:01:44;;;;;;;16.40;15.50;;;;;;;-141.02;100.00;45476.63;5112847;28;20197;-71
2024/01/18 09:04:11;;;;;;;16.85;15.95;;;;;;;-141.02;100.00;45912.78;5113058;28;20229;-72
2024/01/18 09:06:39;;;;;;;16.60;15.70;;;;;;;-141.02;100.00;45774.44;5113038;28;20225;-70
2024/01/18 09:09:09;;;;;;;16.40;15.60;;;;;;;-141.02;100.00;45801.34;5099589;28;20217;-70
2024/01/18 09:11:36;;;;;;;16.13;15.32;;;;;;;-141.02;100.00;45724.47;5092665;28;20224;-69
2024/01/18 09:14:03;;;;;;;19.52;18.42;;;;;;;-141.02;100.00;45655.31;5092667;28;20229;-70
2024/01/18 09:16:31;;;;;;;20.50;19.40;;;;;;;-141.02;100.00;45985.81;5092249;28;20371;-70
2024/01/18 09:19:00;;;;;;;17.10;16.20;;;;;;;-141.02;100.00;45985.81;5092265;28;20678;-70
2024/01/18 09:21:28;;;;;;;17.10;16.20;;;;;;;-141.02;100.00;46329.78;5111816;28;20228;-70
2024/01/18 09:23:55;;;;;;;19.20;18.20;;;;;;;-141.02;100.00;46554.63;5112516;28;20622;-69
2024/01/18 09:26:22;;;;;;;17.40;16.40;;;;;;;-141.02;100.00;46575.75;5112822;28;20639;-70
2024/01/18 09:28:49;;;;;;;16.73;15.82;;;;;;;-141.02;100.00;47077.41;5112676;28;20316;-71
2024/01/18 09:31:16;;;;;;;20.25;19.15;;;;;;;-141.02;100.00;46900.56;5112835;28;20200;-70
2024/01/18 09:33:43;;;;;;;20.58;19.48;;;;;;;-141.02;100.00;47208.13;5108287;28;20193;-70
2024/01/18 09:36:11;;;;;;;17.17;16.27;;;;;;;-141.02;100.00;48023.25;5092126;28;20741;-69
2024/01/18 09:38:38;;;;;;;17.63;16.63;;;;;;;-141.02;100.00;48123.22;5092321;28;20316;-69
2024/01/18 09:41:08;;;;;;;21.13;20.02;;;;;;;-141.02;100.00;48361.66;5092091;28;20331;-70
2024/01/18 09:43:37;;;;;;;18.50;17.40;;;;;;;-141.02;100.00;47719.47;5091863;28;20288;-69
2024/01/18 09:46:06;;;;;;;17.58;16.48;;;;;;;-141.02;100.00;47206.19;5091907;28;20208;-70
2024/01/18 09:48:34;;;;;;;20.77;19.58;;;;;;;-141.02;100.00;47661.81;5091819;28;20573;-70
2024/01/18 09:51:01;;;;;;;19.67;18.48;;;;;;;-141.02;100.00;48038.63;5091826;28;20205;-70
2024/01/18 09:53:30;;;;;;;17.00;16.10;;;;;;;-141.02;100.00;48834.72;5092244;28;20190;-69
2024/01/18 09:56:01;;;;;;;22.33;20.92;;;;;;;-141.02;100.00;50329.38;5091925;28;20759;-69
2024/01/18 09:58:29;;;;;;;24.30;22.70;;;;;;;-141.02;100.00;48659.72;5092246;28;20277;-69
2024/01/18 10:00:59;;;;;;;19.10;17.70;;;;;;;-141.02;100.00;46422.03;5098357;28;20671;-69
2024/01/18 10:03:26;;;;;;;19.20;17.80;;;;;;;-141.02;100.00;45878.19;5112112;28;20680;-68
2024/01/18 10:05:53;;;;;;;21.92;20.52;;;;;;;-141.02;100.00;46035.75;5112114;28;20663;-69
2024/01/18 10:08:20;;;;;;;17.88;16.77;;;;;;;-141.02;100.00;45830.16;5112115;28;20285;-69
2024/01/18 10:10:49;;;;;;;18.02;16.83;;;;;;;-141.02;100.00;45651.47;5111982;28;20312;-69
2024/01/18 10:13:16;;;;;;;20.33;19.23;;;;;;;-141.02;100.00;45728.31;5112086;28;20284;-69
2024/01/18 10:15:43;;;;;;;20.80;19.30;;;;;;;-141.02;100.00;45920.47;5112144;28;20200;-69
2024/01/18 10:18:10;;;;;;;21.15;19.73;;;;;;;-141.02;100.00;46164.50;5111324;28;20185;-69
2024/01/18 10:20:37;;;;;;;24.10;22.40;;;;;;;-141.02;100.00;46185.66;5091583;28;20230;-69
2024/01/18 10:23:04;;;;;;;24.55;22.75;;;;;;;-141.02;100.00;47146.63;5091696;28;20656;-69
2024/01/18 10:25:32;;;;;;;19.48;17.88;;;;;;;-141.02;100.00;46887.13;5091863;28;20675;-69
2024/01/18 10:28:00;;;;;;;19.80;18.20;;;;;;;-141.02;100.00;46254.81;5091579;28;20281;-69
2024/01/18 10:30:27;;;;;;;22.80;21.20;;;;;;;-141.02;100.00;46842.91;5091787;28;20596;-69
2024/01/18 10:32:54;;;;;;;19.10;17.60;;;;;;;-141.02;100.00;46370.13;5110739;28;20641;-70
2024/01/18 10:35:24;;;;;;;19.15;17.75;;;;;;;-141.02;100.00;45697.56;5112207;28;20284;-69
2024/01/18 10:38:02;;;;;;;24.48;22.75;;;;;;;-141.02;100.00;45265.28;5111852;28;20254;-69
2024/01/18 10:40:31;;;;;;;20.50;18.90;;;;;;;-141.02;100.00;44996.34;5111906;28;20185;-69
2024/01/18 10:42:58;;;;;;;19.30;17.80;;;;;;;-141.02;100.00;44823.47;5112092;28;20204;-69
2024/01/18 10:45:30;;;;;;;24.25;22.45;;;;;;;-141.02;100.00;44479.66;5113201;28;20571;-69
2024/01/18 10:47:58;;;;;;;24.25;22.65;;;;;;;-141.02;100.00;44364.41;5107325;28;20201;-69
2024/01/18 10:50:26;;;;;;;17.75;16.45;;;;;;;-141.02;100.00;45213.44;5095282;28;20264;-69
2024/01/18 10:52:54;;;;;;;20.90;19.48;;;;;;;-141.02;100.00;45071.25;5094862;28;20193;-69
2024/01/18 10:55:21;;;;;;;22.45;20.90;;;;;;;-141.02;100.00;45720.63;5094864;28;20650;-69